Hillsdale, Kansas
Current Conditions -  °F | °C
As of 9:53 AM on Friday 28 Nov 2014 (Local Time) from KIXD Reporting Station
Clear Clear  
Wind Chill: 37°   Ceiling: Unl
Heat Index: 45°   Visibility: 10mi
Dew Point: 28°   Wind: 20mph
Humidity: 52%   Direction: 200°SSW
Pressure: 29.97"   Gusts: 28mph
Location:  38.66°N, 94.85°W
Report Text: KIXD 281553Z 20017G24KT 10SM CLR 07/M02 A2997 RMK AO2 SLP153 T00721022
Loading
Personal Weather Stations






























Interactive Weather Map New forecast layout! Learn more

10-Day Weather Forecast

Advertisements
Track Severe Weather on mobile